createdAt,value
2022-09-11T00:01:33.489Z,19.90
2022-09-11T00:04:02.835Z,19.95
2022-09-11T00:06:31.250Z,20.12
2022-09-11T00:09:02.311Z,20.05
2022-09-11T00:11:36.388Z,20.10
2022-09-11T00:14:04.808Z,19.92
2022-09-11T00:16:37.423Z,20.08
2022-09-11T00:19:11.755Z,19.61
2022-09-11T00:21:39.523Z,20.07
2022-09-11T00:24:09.967Z,20.09
2022-09-11T00:26:42.834Z,19.98
2022-09-11T00:29:12.001Z,20.01
2022-09-11T00:31:39.961Z,19.93
2022-09-11T00:34:07.639Z,19.94
2022-09-11T00:36:41.429Z,19.85
2022-09-11T00:39:12.486Z,19.94
2022-09-11T00:41:42.965Z,19.91
2022-09-11T00:44:13.904Z,19.89
2022-09-11T00:46:48.310Z,19.82
2022-09-11T00:49:22.422Z,19.84
2022-09-11T00:51:54.577Z,19.63
2022-09-11T00:54:29.168Z,19.76
2022-09-11T00:56:58.824Z,19.78
2022-09-11T00:59:31.421Z,19.82
2022-09-11T01:01:59.111Z,19.66
2022-09-11T01:04:29.313Z,19.70
2022-09-11T01:06:58.044Z,19.61
2022-09-11T01:09:29.827Z,19.66
2022-09-11T01:12:09.931Z,19.63
2022-09-11T01:14:50.018Z,19.35
2022-09-11T01:17:40.801Z,19.59
2022-09-11T01:20:33.119Z,19.36
2022-09-11T01:23:30.748Z,19.35
2022-09-11T01:26:07.606Z,19.49
2022-09-11T01:29:13.424Z,19.48
2022-09-11T01:31:48.142Z,19.40
2022-09-11T01:34:55.136Z,19.36
2022-09-11T01:37:34.586Z,19.27
2022-09-11T01:40:11.023Z,19.20
2022-09-11T01:42:43.422Z,19.15
2022-09-11T01:45:16.950Z,19.30
2022-09-11T01:47:47.325Z,19.14
2022-09-11T01:50:18.716Z,19.25
2022-09-11T01:52:53.366Z,19.19
2022-09-11T01:55:24.272Z,19.18
2022-09-11T01:58:00.658Z,19.10
2022-09-11T02:00:32.421Z,19.06
2022-09-11T02:03:37.160Z,18.87
2022-09-11T02:06:28.725Z,18.89
2022-09-11T02:09:01.084Z,18.96
2022-09-11T02:11:34.136Z,18.86
2022-09-11T02:14:39.116Z,18.82
2022-09-11T02:17:18.379Z,18.72
2022-09-11T02:19:46.246Z,18.51
2022-09-11T02:22:14.218Z,18.50
2022-09-11T02:24:41.869Z,18.60
2022-09-11T02:27:13.516Z,18.42
2022-09-11T02:29:42.847Z,18.42
2022-09-11T02:32:11.337Z,18.53
2022-09-11T02:34:42.832Z,18.54
2022-09-11T02:37:52.195Z,18.54
2022-09-11T02:40:42.058Z,18.50
2022-09-11T02:43:23.345Z,18.17
2022-09-11T02:46:25.590Z,18.43
2022-09-11T02:49:14.138Z,18.27
2022-09-11T02:52:03.250Z,17.92
2022-09-11T02:54:40.279Z,18.37
2022-09-11T02:57:19.641Z,18.09
2022-09-11T02:59:58.382Z,18.22
2022-09-11T03:02:27.995Z,18.15
2022-09-11T03:04:56.826Z,18.33
2022-09-11T03:07:25.890Z,17.96
2022-09-11T03:09:53.446Z,18.21
2022-09-11T03:12:22.803Z,18.20
2022-09-11T03:14:52.213Z,18.23
2022-09-11T03:17:21.968Z,18.18
2022-09-11T03:19:49.683Z,17.96
2022-09-11T03:22:19.162Z,18.13
2022-09-11T03:24:48.714Z,18.02
2022-09-11T03:27:17.464Z,17.82
2022-09-11T03:29:46.194Z,18.05
2022-09-11T03:32:18.082Z,17.77
2022-09-11T03:34:47.832Z,17.99
2022-09-11T03:37:16.554Z,17.86
2022-09-11T03:39:45.163Z,17.69
2022-09-11T03:42:13.828Z,17.94
2022-09-11T03:44:43.441Z,17.73
2022-09-11T03:47:13.415Z,17.69
2022-09-11T03:49:40.892Z,17.51
2022-09-11T03:52:08.554Z,17.62
2022-09-11T03:54:36.221Z,17.69
2022-09-11T03:57:04.504Z,17.61
2022-09-11T03:59:32.272Z,17.62
2022-09-11T04:02:00.432Z,17.41
2022-09-11T04:04:28.176Z,17.34
2022-09-11T04:06:56.913Z,17.32
2022-09-11T04:09:25.809Z,17.43
2022-09-11T04:11:53.882Z,17.30
2022-09-11T04:14:26.460Z,17.31
2022-09-11T04:16:57.308Z,17.47
2022-09-11T04:19:26.352Z,17.47
2022-09-11T04:21:54.021Z,17.47
2022-09-11T04:24:22.457Z,17.43
2022-09-11T04:26:50.606Z,17.03
2022-09-11T04:29:22.681Z,17.31
2022-09-11T04:31:51.647Z,17.26
2022-09-11T04:34:19.890Z,17.13
2022-09-11T04:36:47.756Z,17.40
2022-09-11T04:39:20.161Z,17.39
2022-09-11T04:41:49.213Z,16.78
2022-09-11T04:44:17.208Z,17.33
2022-09-11T04:46:45.576Z,16.93
2022-09-11T04:49:14.875Z,17.20
2022-09-11T04:51:43.813Z,17.47
2022-09-11T04:54:21.372Z,17.20
2022-09-11T04:56:49.480Z,17.46
2022-09-11T04:59:20.127Z,17.45
2022-09-11T05:02:05.494Z,17.38
2022-09-11T05:04:37.148Z,17.36
2022-09-11T05:07:05.542Z,17.26
2022-09-11T05:09:33.823Z,17.41
2022-09-11T05:12:02.774Z,17.51
2022-09-11T05:14:33.027Z,17.56
2022-09-11T05:17:02.619Z,17.15
2022-09-11T05:19:31.290Z,17.28
2022-09-11T05:21:58.825Z,17.67
2022-09-11T05:24:26.442Z,17.64
2022-09-11T05:26:59.540Z,17.86
2022-09-11T05:29:32.729Z,17.52
2022-09-11T05:32:04.256Z,17.81
2022-09-11T05:34:32.038Z,17.97
2022-09-11T05:37:02.448Z,17.89
2022-09-11T05:39:33.853Z,18.12
2022-09-11T05:42:04.763Z,18.22
2022-09-11T05:44:37.166Z,18.32
2022-09-11T05:47:05.803Z,18.34
2022-09-11T05:49:32.827Z,18.23
2022-09-11T05:52:02.163Z,18.10
2022-09-11T05:54:32.639Z,18.12
2022-09-11T05:57:07.387Z,18.19
2022-09-11T05:59:38.621Z,18.59
2022-09-11T06:02:06.953Z,18.71
2022-09-11T06:04:43.764Z,18.54
2022-09-11T06:07:13.062Z,18.63
2022-09-11T06:09:42.536Z,18.78
2022-09-11T06:12:12.966Z,19.01
2022-09-11T06:14:44.043Z,18.97
2022-09-11T06:17:12.734Z,18.71
2022-09-11T06:19:40.152Z,19.00
2022-09-11T06:22:08.018Z,19.26
2022-09-11T06:24:39.455Z,19.35
2022-09-11T06:27:07.117Z,19.43
2022-09-11T06:29:37.577Z,19.34
2022-09-11T06:32:07.085Z,19.63
2022-09-11T06:34:34.891Z,19.71
2022-09-11T06:37:06.619Z,19.73
2022-09-11T06:39:34.387Z,19.77
2022-09-11T06:42:03.009Z,19.94
2022-09-11T06:44:34.992Z,20.04
2022-09-11T06:47:04.030Z,20.14
2022-09-11T06:49:32.763Z,20.27
2022-09-11T06:52:18.752Z,20.16
2022-09-11T06:54:57.464Z,20.43
2022-09-11T06:57:25.365Z,20.54
2022-09-11T06:59:52.611Z,20.65
2022-09-11T07:02:21.617Z,20.52
2022-09-11T07:04:49.063Z,20.70
2022-09-11T07:07:18.133Z,20.84
2022-09-11T07:09:45.287Z,20.88
2022-09-11T07:12:13.550Z,20.85
2022-09-11T07:14:41.511Z,20.95
2022-09-11T07:17:16.783Z,20.97
2022-09-11T07:19:47.115Z,20.97
2022-09-11T07:22:15.696Z,21.00
2022-09-11T07:24:42.906Z,20.93
2022-09-11T07:27:10.446Z,21.07
2022-09-11T07:29:37.986Z,21.26
2022-09-11T07:32:05.337Z,21.18
2022-09-11T07:34:34.514Z,21.30
2022-09-11T07:37:05.818Z,21.49
2022-09-11T07:39:37.028Z,21.58
2022-09-11T07:42:09.192Z,21.54
2022-09-11T07:44:37.985Z,21.75
2022-09-11T07:47:05.801Z,21.68
2022-09-11T07:49:38.850Z,21.82
2022-09-11T07:52:05.958Z,21.77
2022-09-11T07:54:53.746Z,22.04
2022-09-11T07:57:25.107Z,21.96
2022-09-11T07:59:53.599Z,22.00
2022-09-11T08:02:22.715Z,22.14
2022-09-11T08:04:51.936Z,22.39
2022-09-11T08:07:19.590Z,22.39
2022-09-11T08:09:56.044Z,22.37
2022-09-11T08:12:36.091Z,22.26
2022-09-11T08:15:04.396Z,22.54
2022-09-11T08:17:32.997Z,22.73
2022-09-11T08:20:03.149Z,22.79
2022-09-11T08:22:30.958Z,22.76
2022-09-11T08:24:58.920Z,23.01
2022-09-11T08:27:27.069Z,22.90
2022-09-11T08:29:55.183Z,23.20
2022-09-11T08:32:24.095Z,23.19
2022-09-11T08:34:51.473Z,23.22
2022-09-11T08:37:20.583Z,23.33
2022-09-11T08:39:48.186Z,23.21
2022-09-11T08:42:18.202Z,23.41
2022-09-11T08:44:54.255Z,23.64
2022-09-11T08:47:39.965Z,23.73
2022-09-11T08:50:21.364Z,23.80
2022-09-11T08:52:50.478Z,23.85
2022-09-11T08:55:50.046Z,23.85
2022-09-11T08:58:37.585Z,23.87
2022-09-11T09:01:37.218Z,24.02
2022-09-11T09:04:27.572Z,24.12
2022-09-11T09:06:58.183Z,24.22
2022-09-11T09:09:48.895Z,24.32
2022-09-11T09:12:41.270Z,24.40
2022-09-11T09:15:36.957Z,24.42
2022-09-11T09:18:17.537Z,24.41
2022-09-11T09:21:01.099Z,24.50
2022-09-11T09:23:36.613Z,24.44
2022-09-11T09:26:04.327Z,24.43
2022-09-11T09:28:46.922Z,24.46
2022-09-11T09:31:21.343Z,24.32
2022-09-11T09:33:58.957Z,24.34
2022-09-11T09:36:44.225Z,24.61
2022-09-11T09:39:15.987Z,24.83
2022-09-11T09:42:11.333Z,24.88
2022-09-11T09:45:15.015Z,24.96
2022-09-11T09:47:48.087Z,24.98
2022-09-11T09:50:21.874Z,24.91
2022-09-11T09:52:51.739Z,25.11
2022-09-11T09:55:21.118Z,25.19
2022-09-11T09:57:48.852Z,25.16
2022-09-11T10:00:20.361Z,24.76
2022-09-11T10:02:56.620Z,24.84
2022-09-11T10:05:45.105Z,24.75
2022-09-11T10:08:33.790Z,24.99
2022-09-11T10:11:09.768Z,25.04
2022-09-11T10:13:41.376Z,25.00
2022-09-11T10:16:27.208Z,24.88
2022-09-11T10:18:56.105Z,25.13
2022-09-11T10:21:36.513Z,25.23
2022-09-11T10:24:20.126Z,25.33
2022-09-11T10:26:52.162Z,25.36
2022-09-11T10:29:30.143Z,24.85
2022-09-11T10:32:02.721Z,25.34
2022-09-11T10:34:41.192Z,25.44
2022-09-11T10:37:30.549Z,25.39
2022-09-11T10:40:19.645Z,25.47
2022-09-11T10:42:50.083Z,25.61
2022-09-11T10:45:21.894Z,25.51
2022-09-11T10:47:50.202Z,25.58
2022-09-11T10:50:19.048Z,25.35
2022-09-11T10:53:16.254Z,25.22
2022-09-11T10:55:51.688Z,25.27
2022-09-11T10:58:24.264Z,25.42
2022-09-11T11:00:52.213Z,25.46
2022-09-11T11:03:29.704Z,25.32
2022-09-11T11:06:19.506Z,25.52
2022-09-11T11:09:28.983Z,25.51
2022-09-11T11:12:01.602Z,25.27
2022-09-11T11:15:17.876Z,25.34
2022-09-11T11:18:01.380Z,25.35
2022-09-11T11:20:52.730Z,25.23
2022-09-11T11:23:32.478Z,25.06
2022-09-11T11:26:32.620Z,25.08
2022-09-11T11:29:18.516Z,24.95
2022-09-11T11:32:06.218Z,24.99
2022-09-11T11:35:03.126Z,24.63
2022-09-11T11:37:40.275Z,24.77
2022-09-11T11:40:18.376Z,24.83
2022-09-11T11:42:56.117Z,24.57
2022-09-11T11:46:02.490Z,24.62
2022-09-11T11:48:48.911Z,24.43
2022-09-11T11:51:22.107Z,24.46
2022-09-11T11:54:08.817Z,24.43
2022-09-11T11:56:47.366Z,24.44
2022-09-11T11:59:37.237Z,24.46
2022-09-11T12:02:10.748Z,24.58
2022-09-11T12:04:50.777Z,24.60
2022-09-11T12:07:33.286Z,24.46
2022-09-11T12:10:03.729Z,24.62
2022-09-11T12:12:36.917Z,24.82
2022-09-11T12:15:32.781Z,24.92
2022-09-11T12:18:02.984Z,24.91
2022-09-11T12:20:42.131Z,24.75
2022-09-11T12:23:31.176Z,24.98
2022-09-11T12:26:17.598Z,24.91
2022-09-11T12:28:45.563Z,24.53
2022-09-11T12:31:18.272Z,24.79
2022-09-11T12:33:50.957Z,24.81
2022-09-11T12:36:44.081Z,24.79
2022-09-11T12:39:34.742Z,24.77
2022-09-11T12:42:31.328Z,24.75
2022-09-11T12:45:04.315Z,24.53
2022-09-11T12:47:42.361Z,24.83
2022-09-11T12:50:12.303Z,24.83
2022-09-11T12:52:48.570Z,24.90
2022-09-11T12:55:39.920Z,24.91
2022-09-11T12:58:26.242Z,24.95
2022-09-11T13:01:14.976Z,25.01
2022-09-11T13:04:13.420Z,24.84
2022-09-11T13:06:48.394Z,25.06
2022-09-11T13:09:30.620Z,24.85
2022-09-11T13:12:26.980Z,24.95
2022-09-11T13:15:00.433Z,24.92
2022-09-11T13:17:33.701Z,24.80
2022-09-11T13:20:11.039Z,24.80
2022-09-11T13:22:38.762Z,24.85
2022-09-11T13:25:17.947Z,24.55
2022-09-11T13:28:06.954Z,24.33
2022-09-11T13:30:35.674Z,24.29
2022-09-11T13:33:19.435Z,24.02
2022-09-11T13:35:47.401Z,23.80
2022-09-11T13:38:20.618Z,23.28
2022-09-11T13:40:54.779Z,23.08
2022-09-11T13:43:28.795Z,22.50
2022-09-11T13:46:11.533Z,21.82
2022-09-11T13:48:39.234Z,21.69
2022-09-11T13:51:06.768Z,21.85
2022-09-11T13:53:36.265Z,21.71
2022-09-11T13:56:03.655Z,21.69
2022-09-11T13:58:40.173Z,21.51
2022-09-11T14:01:17.054Z,21.64
2022-09-11T14:03:47.475Z,21.58
2022-09-11T14:06:20.802Z,21.61
2022-09-11T14:08:52.085Z,21.57
2022-09-11T14:11:31.950Z,21.60
2022-09-11T14:14:06.883Z,21.58
2022-09-11T14:16:38.357Z,21.45
2022-09-11T14:19:22.561Z,21.46
2022-09-11T14:21:51.634Z,21.37
2022-09-11T14:24:33.600Z,21.39
2022-09-11T14:27:35.282Z,21.60
2022-09-11T14:30:36.180Z,21.63
2022-09-11T14:33:23.175Z,21.61
2022-09-11T14:35:54.645Z,21.41
2022-09-11T14:38:24.295Z,21.51
2022-09-11T14:40:57.162Z,21.36
2022-09-11T14:43:33.245Z,21.45
2022-09-11T14:46:03.806Z,21.35
2022-09-11T14:48:34.384Z,21.40
2022-09-11T14:51:09.879Z,21.24
2022-09-11T14:53:43.561Z,21.14
2022-09-11T14:56:12.217Z,21.16
2022-09-11T14:58:39.486Z,21.11
2022-09-11T15:01:07.958Z,21.02
2022-09-11T15:03:35.261Z,20.92
2022-09-11T15:06:03.500Z,21.03
2022-09-11T15:08:30.723Z,21.22
2022-09-11T15:10:58.511Z,21.07
2022-09-11T15:13:25.476Z,21.21
2022-09-11T15:15:54.151Z,20.96
2022-09-11T15:18:21.322Z,21.10
2022-09-11T15:20:48.575Z,20.78
2022-09-11T15:23:17.096Z,20.95
2022-09-11T15:25:45.202Z,20.93
2022-09-11T15:28:13.279Z,20.73
2022-09-11T15:30:42.518Z,20.85
2022-09-11T15:33:10.610Z,20.44
2022-09-11T15:35:38.424Z,20.52
2022-09-11T15:38:05.785Z,20.84
2022-09-11T15:40:36.460Z,20.77
2022-09-11T15:43:04.862Z,20.75
2022-09-11T15:45:33.434Z,20.67
2022-09-11T15:48:00.724Z,20.50
2022-09-11T15:50:30.269Z,20.71
2022-09-11T15:52:58.893Z,20.53
2022-09-11T15:55:30.247Z,20.55
2022-09-11T15:58:01.493Z,20.58
2022-09-11T16:00:30.279Z,20.43
2022-09-11T16:02:57.751Z,20.55
2022-09-11T16:05:25.911Z,20.19
2022-09-11T16:07:57.101Z,20.33
2022-09-11T16:10:24.437Z,20.06
2022-09-11T16:12:54.456Z,20.27
2022-09-11T16:15:24.061Z,20.18
2022-09-11T16:17:51.421Z,20.07
2022-09-11T16:20:19.348Z,20.16
2022-09-11T16:22:47.057Z,19.86
2022-09-11T16:25:16.117Z,20.15
2022-09-11T16:27:44.754Z,20.15
2022-09-11T16:30:41.608Z,20.12
2022-09-11T16:33:03.106Z,19.96
2022-09-11T16:35:32.748Z,19.90
2022-09-11T16:38:01.447Z,19.91
2022-09-11T16:40:29.548Z,19.97
2022-09-11T16:42:57.621Z,20.06
2022-09-11T16:45:25.659Z,19.80
2022-09-11T16:47:52.888Z,19.82
2022-09-11T16:50:20.119Z,19.81
2022-09-11T16:52:47.919Z,19.95
2022-09-11T16:55:15.864Z,19.84
2022-09-11T16:57:44.881Z,19.80
2022-09-11T17:00:14.600Z,19.67
2022-09-11T17:02:42.444Z,19.68
2022-09-11T17:05:10.651Z,19.72
2022-09-11T17:07:39.456Z,19.77
2022-09-11T17:10:07.939Z,19.66
2022-09-11T17:12:35.751Z,19.54
2022-09-11T17:15:04.384Z,19.42
2022-09-11T17:17:33.801Z,19.42
2022-09-11T17:20:02.044Z,19.54
2022-09-11T17:22:30.650Z,19.38
2022-09-11T17:24:58.731Z,19.39
2022-09-11T17:27:26.974Z,19.33
2022-09-11T17:29:54.888Z,19.43
2022-09-11T17:32:28.170Z,19.12
2022-09-11T17:34:59.327Z,19.31
2022-09-11T17:37:28.842Z,19.11
2022-09-11T17:39:58.997Z,18.98
2022-09-11T17:42:30.736Z,19.15
2022-09-11T17:45:01.099Z,19.19
2022-09-11T17:47:33.070Z,19.33
2022-09-11T17:50:04.065Z,19.19
2022-09-11T17:52:35.159Z,19.34
2022-09-11T17:55:06.754Z,19.34
2022-09-11T17:57:34.073Z,19.37
2022-09-11T18:00:03.217Z,19.40
2022-09-11T18:02:40.259Z,19.26
2022-09-11T18:05:09.146Z,19.18
2022-09-11T18:07:37.900Z,19.33
2022-09-11T18:10:06.985Z,19.33
2022-09-11T18:12:35.469Z,19.36
2022-09-11T18:15:04.111Z,19.34
2022-09-11T18:17:32.236Z,19.02
2022-09-11T18:19:59.189Z,19.34
2022-09-11T18:22:29.746Z,19.28
2022-09-11T18:24:59.872Z,19.29
2022-09-11T18:27:29.815Z,19.22
2022-09-11T18:29:57.069Z,19.22
2022-09-11T18:32:24.545Z,19.19
2022-09-11T18:34:52.057Z,19.17
2022-09-11T18:37:19.872Z,19.20
2022-09-11T18:39:48.988Z,19.21
2022-09-11T18:42:18.135Z,19.07
2022-09-11T18:44:46.048Z,19.22
2022-09-11T18:47:13.353Z,19.24
2022-09-11T18:49:40.506Z,19.18
2022-09-11T18:52:09.143Z,19.13
2022-09-11T18:54:37.320Z,18.94
2022-09-11T18:57:04.889Z,19.07
2022-09-11T18:59:32.809Z,18.98
2022-09-11T19:02:00.917Z,18.96
2022-09-11T19:04:29.522Z,18.92
2022-09-11T19:06:56.945Z,19.07
2022-09-11T19:09:25.121Z,18.88
2022-09-11T19:11:54.016Z,18.78
2022-09-11T19:14:22.297Z,18.87
2022-09-11T19:16:49.763Z,18.78
2022-09-11T19:19:17.842Z,18.63
2022-09-11T19:21:45.205Z,18.95
2022-09-11T19:24:13.420Z,18.96
2022-09-11T19:26:43.595Z,18.65
2022-09-11T19:29:13.534Z,18.77
2022-09-11T19:31:41.169Z,18.82
2022-09-11T19:34:12.073Z,18.96
2022-09-11T19:36:41.293Z,18.77
2022-09-11T19:39:10.938Z,18.65
2022-09-11T19:41:40.046Z,18.89
2022-09-11T19:44:12.243Z,18.98
2022-09-11T19:46:42.049Z,18.88
2022-09-11T19:49:09.987Z,19.02
2022-09-11T19:51:40.104Z,18.93
2022-09-11T19:54:08.081Z,18.66
2022-09-11T19:56:37.712Z,18.67
2022-09-11T19:59:07.429Z,18.58
2022-09-11T20:01:35.159Z,18.69
2022-09-11T20:04:03.721Z,18.36
2022-09-11T20:06:33.171Z,18.65
2022-09-11T20:09:35.202Z,18.37
2022-09-11T20:11:49.069Z,18.22
2022-09-11T20:14:16.850Z,18.24
2022-09-11T20:16:44.458Z,18.34
2022-09-11T20:19:11.967Z,18.19
2022-09-11T20:21:39.272Z,18.11
2022-09-11T20:24:07.452Z,18.28
2022-09-11T20:26:36.429Z,18.30
2022-09-11T20:29:09.395Z,18.24
2022-09-11T20:31:49.763Z,18.20
2022-09-11T20:34:22.109Z,18.20
2022-09-11T20:36:50.080Z,17.48
2022-09-11T20:39:17.396Z,18.20
2022-09-11T20:41:45.768Z,18.12
2022-09-11T20:44:13.037Z,17.95
2022-09-11T20:46:41.347Z,18.04
2022-09-11T20:49:08.517Z,18.06
2022-09-11T20:51:37.316Z,18.14
2022-09-11T20:54:04.664Z,18.01
2022-09-11T20:56:32.952Z,18.06
2022-09-11T20:59:00.898Z,18.14
2022-09-11T21:01:34.502Z,17.95
2022-09-11T21:04:04.398Z,18.05
2022-09-11T21:06:34.566Z,17.86
2022-09-11T21:09:08.780Z,17.84
2022-09-11T21:11:37.722Z,17.80
2022-09-11T21:14:06.739Z,17.95
2022-09-11T21:16:35.282Z,17.76
2022-09-11T21:19:03.706Z,17.92
2022-09-11T21:21:33.311Z,17.98
2022-09-11T21:24:04.113Z,17.70
2022-09-11T21:26:33.811Z,17.81
2022-09-11T21:29:03.890Z,18.06
2022-09-11T21:31:31.769Z,18.07
2022-09-11T21:33:59.867Z,17.92
2022-09-11T21:36:28.118Z,17.91
2022-09-11T21:38:55.583Z,17.98
2022-09-11T21:41:23.589Z,17.98
2022-09-11T21:43:50.867Z,18.13
2022-09-11T21:46:18.762Z,18.06
2022-09-11T21:48:45.832Z,18.01
2022-09-11T21:51:18.697Z,17.96
2022-09-11T21:53:48.116Z,18.06
2022-09-11T21:56:24.965Z,18.25
2022-09-11T21:58:53.537Z,18.13
2022-09-11T22:01:21.565Z,18.04
2022-09-11T22:03:50.361Z,18.15
2022-09-11T22:06:18.275Z,18.20
2022-09-11T22:08:47.344Z,18.24
2022-09-11T22:11:15.564Z,18.29
2022-09-11T22:13:43.777Z,18.32
2022-09-11T22:16:14.817Z,18.28
2022-09-11T22:18:43.121Z,18.12
2022-09-11T22:21:10.616Z,18.29
2022-09-11T22:23:38.478Z,18.03
2022-09-11T22:26:14.974Z,18.32
2022-09-11T22:28:44.564Z,18.26
2022-09-11T22:31:21.711Z,18.27
2022-09-11T22:33:50.608Z,18.22
2022-09-11T22:36:20.775Z,18.22
2022-09-11T22:38:49.582Z,17.98
2022-09-11T22:41:17.661Z,18.18
2022-09-11T22:43:48.238Z,17.98
2022-09-11T22:46:16.381Z,18.12
2022-09-11T22:48:44.035Z,18.19
2022-09-11T22:51:12.296Z,18.10
2022-09-11T22:53:39.928Z,18.03
2022-09-11T22:56:08.512Z,17.97
2022-09-11T22:58:36.088Z,18.05
2022-09-11T23:01:05.131Z,18.08
2022-09-11T23:03:32.235Z,18.12
2022-09-11T23:06:20.664Z,18.01
2022-09-11T23:08:49.334Z,18.07
2022-09-11T23:11:20.050Z,17.89
2022-09-11T23:13:49.542Z,17.67
2022-09-11T23:16:21.773Z,17.68
2022-09-11T23:19:00.442Z,17.49
2022-09-11T23:21:29.300Z,17.42
2022-09-11T23:23:58.235Z,17.37
2022-09-11T23:26:27.801Z,17.37
2022-09-11T23:28:55.932Z,17.02
2022-09-11T23:31:32.962Z,17.28
2022-09-11T23:34:06.827Z,17.25
2022-09-11T23:36:36.169Z,17.18
2022-09-11T23:39:03.871Z,16.79
2022-09-11T23:41:32.410Z,16.99
2022-09-11T23:44:00.189Z,17.03
2022-09-11T23:46:29.327Z,16.67
2022-09-11T23:48:56.481Z,16.98
2022-09-11T23:51:24.043Z,16.80
2022-09-11T23:53:52.453Z,16.95
2022-09-11T23:56:23.110Z,16.73
2022-09-11T23:58:51.556Z,16.72
